createdAt,value
2023-04-28T00:00:15.946Z,100798.53
2023-04-28T00:02:44.254Z,100786.97
2023-04-28T00:05:12.534Z,100788.13
2023-04-28T00:07:40.561Z,100784.72
2023-04-28T00:10:09.952Z,100784.81
2023-04-28T00:12:39.442Z,100777.34
2023-04-28T00:15:09.201Z,100770.13
2023-04-28T00:17:37.494Z,100757.63
2023-04-28T00:20:06.830Z,100762.34
2023-04-28T00:22:35.018Z,100762.22
2023-04-28T00:25:03.242Z,100748.41
2023-04-28T00:27:31.248Z,100741.84
2023-04-28T00:30:00.726Z,100746.31
2023-04-28T00:32:29.535Z,100741.38
2023-04-28T00:34:58.570Z,100726.63
2023-04-28T00:37:26.531Z,100736.56
2023-04-28T00:39:57.756Z,100734.22
2023-04-28T00:42:25.846Z,100728.59
2023-04-28T00:44:54.783Z,100726.53
2023-04-28T00:47:24.366Z,100723.16
2023-04-28T00:49:53.121Z,100725.69
2023-04-28T00:52:21.361Z,100725.22
2023-04-28T00:54:49.658Z,100717.25
2023-04-28T00:57:17.975Z,100708.19
2023-04-28T00:59:46.216Z,100705.28
2023-04-28T01:02:17.455Z,100701.75
2023-04-28T01:04:48.086Z,100707.38
2023-04-28T01:07:16.913Z,100698.72
2023-04-28T01:09:46.207Z,100697.88
2023-04-28T01:12:15.036Z,100708.38
2023-04-28T01:14:49.793Z,100702.25
2023-04-28T01:17:18.786Z,100697.19
2023-04-28T01:19:48.435Z,100686.53
2023-04-28T01:22:16.818Z,100694.00
2023-04-28T01:24:46.687Z,100693.03
2023-04-28T01:27:16.615Z,100681.91
2023-04-28T01:29:45.987Z,100689.59
2023-04-28T01:32:14.075Z,100682.03
2023-04-28T01:34:42.075Z,100661.59
2023-04-28T01:37:10.146Z,100658.84
2023-04-28T01:39:38.619Z,100662.63
2023-04-28T01:42:08.551Z,100663.31
2023-04-28T01:44:36.489Z,100646.31
2023-04-28T01:47:06.628Z,100639.97
2023-04-28T01:49:48.388Z,100642.56
2023-04-28T01:52:16.470Z,100644.69
2023-04-28T01:54:44.537Z,100643.00
2023-04-28T01:57:15.465Z,100650.59
2023-04-28T01:59:46.443Z,100635.00
2023-04-28T02:02:14.425Z,100642.63
2023-04-28T02:04:42.785Z,100633.81
2023-04-28T02:07:10.801Z,100633.81
2023-04-28T02:09:38.736Z,100625.63
2023-04-28T02:12:06.767Z,100611.34
2023-04-28T02:14:37.190Z,100616.78
2023-04-28T02:17:05.561Z,100622.91
2023-04-28T02:19:34.634Z,100626.19
2023-04-28T02:22:02.552Z,100617.13
2023-04-28T02:24:30.731Z,100613.38
2023-04-28T02:26:59.313Z,100618.66
2023-04-28T02:29:30.149Z,100606.25
2023-04-28T02:32:08.129Z,100596.78
2023-04-28T02:34:36.618Z,100601.78
2023-04-28T02:37:04.525Z,100597.75
2023-04-28T02:39:33.182Z,100598.78
2023-04-28T02:42:01.390Z,100590.44
2023-04-28T02:44:29.375Z,100602.28
2023-04-28T02:46:57.415Z,100576.97
2023-04-28T02:49:28.861Z,100586.94
2023-04-28T02:51:56.999Z,100583.25
2023-04-28T02:54:28.329Z,100584.47
2023-04-28T02:56:58.685Z,100575.16
2023-04-28T02:59:27.220Z,100582.88
2023-04-28T03:01:55.363Z,100579.28
2023-04-28T03:04:25.100Z,100578.16
2023-04-28T03:06:54.445Z,100575.59
2023-04-28T03:09:22.304Z,100565.09
2023-04-28T03:11:50.394Z,100561.69
2023-04-28T03:14:18.534Z,100562.91
2023-04-28T03:16:49.152Z,100559.28
2023-04-28T03:19:17.224Z,100557.22
2023-04-28T03:21:45.250Z,100559.81
2023-04-28T03:24:16.074Z,100555.53
2023-04-28T03:26:44.317Z,100550.09
2023-04-28T03:29:12.755Z,100545.75
2023-04-28T03:31:40.794Z,100556.63
2023-04-28T03:34:08.931Z,100554.56
2023-04-28T03:36:36.994Z,100549.06
2023-04-28T03:39:11.892Z,100546.44
2023-04-28T03:41:41.685Z,100555.97
2023-04-28T03:44:29.498Z,100551.63
2023-04-28T03:46:57.901Z,100551.34
2023-04-28T03:49:26.108Z,100543.69
2023-04-28T03:51:54.025Z,100543.19
2023-04-28T03:54:22.082Z,100540.66
2023-04-28T03:56:51.698Z,100538.13
2023-04-28T03:59:19.852Z,100531.97
2023-04-28T04:01:47.740Z,100535.94
2023-04-28T04:04:16.215Z,100533.69
2023-04-28T04:06:44.778Z,100530.03
2023-04-28T04:09:13.705Z,100531.69
2023-04-28T04:11:42.270Z,100536.78
2023-04-28T04:14:11.782Z,100529.28
2023-04-28T04:16:41.188Z,100526.94
2023-04-28T04:19:09.222Z,100527.97
2023-04-28T04:21:44.422Z,100528.94
2023-04-28T04:24:12.249Z,100522.75
2023-04-28T04:26:41.126Z,100511.47
2023-04-28T04:29:27.078Z,100523.19
2023-04-28T04:31:55.373Z,100528.72
2023-04-28T04:34:23.280Z,100521.50
2023-04-28T04:36:51.753Z,100521.22
2023-04-28T04:39:19.836Z,100519.09
2023-04-28T04:41:48.888Z,100524.22
2023-04-28T04:44:40.231Z,100519.47
2023-04-28T04:47:12.497Z,100511.41
2023-04-28T04:49:40.638Z,100513.53
2023-04-28T04:52:08.420Z,100497.03
2023-04-28T04:54:36.686Z,100511.31
2023-04-28T04:57:05.501Z,100512.31
2023-04-28T04:59:57.602Z,100513.94
2023-04-28T05:02:25.847Z,100508.50
2023-04-28T05:05:01.812Z,100497.25
2023-04-28T05:07:36.903Z,100486.00
2023-04-28T05:10:07.191Z,100505.97
2023-04-28T05:12:35.166Z,100498.03
2023-04-28T05:15:05.251Z,100489.28
2023-04-28T05:17:33.458Z,100487.22
2023-04-28T05:20:02.115Z,100479.81
2023-04-28T05:22:31.297Z,100486.19
2023-04-28T05:25:00.213Z,100479.44
2023-04-28T05:27:28.276Z,100485.00
2023-04-28T05:29:56.473Z,100484.63
2023-04-28T05:32:25.799Z,100485.84
2023-04-28T05:34:54.538Z,100485.47
2023-04-28T05:37:22.675Z,100486.03
2023-04-28T05:39:50.691Z,100480.94
2023-04-28T05:42:25.981Z,100478.47
2023-04-28T05:44:54.913Z,100480.88
2023-04-28T05:47:22.976Z,100487.44
2023-04-28T05:49:58.085Z,100494.03
2023-04-28T05:52:26.560Z,100491.09
2023-04-28T05:54:54.556Z,100488.09
2023-04-28T05:57:22.521Z,100485.28
2023-04-28T05:59:50.694Z,100477.31
2023-04-28T06:02:20.446Z,100475.72
2023-04-28T06:04:50.375Z,100479.09
2023-04-28T06:07:20.648Z,100472.91
2023-04-28T06:09:49.969Z,100465.47
2023-04-28T06:12:17.904Z,100470.38
2023-04-28T06:14:45.775Z,100448.09
2023-04-28T06:17:16.418Z,100456.66
2023-04-28T06:19:48.852Z,100462.75
2023-04-28T06:22:17.671Z,100463.53
2023-04-28T06:24:48.082Z,100454.00
2023-04-28T06:27:21.177Z,100460.00
2023-04-28T06:29:54.091Z,100460.13
2023-04-28T06:32:22.728Z,100457.19
2023-04-28T06:34:51.043Z,100451.84
2023-04-28T06:37:18.998Z,100467.41
2023-04-28T06:39:49.867Z,100460.56
2023-04-28T06:42:19.107Z,100456.91
2023-04-28T06:44:54.347Z,100451.47
2023-04-28T06:47:22.434Z,100456.34
2023-04-28T06:49:50.482Z,100447.13
2023-04-28T06:52:20.055Z,100443.09
2023-04-28T06:54:52.296Z,100444.22
2023-04-28T06:57:21.136Z,100437.75
2023-04-28T06:59:50.755Z,100442.44
2023-04-28T07:02:18.726Z,100435.34
2023-04-28T07:04:48.375Z,100437.88
2023-04-28T07:07:17.281Z,100438.34
2023-04-28T07:09:48.384Z,100434.13
2023-04-28T07:12:22.412Z,100440.91
2023-04-28T07:14:51.773Z,100424.94
2023-04-28T07:17:20.837Z,100430.06
2023-04-28T07:19:49.928Z,100424.78
2023-04-28T07:22:22.826Z,100421.81
2023-04-28T07:24:51.078Z,100422.06
2023-04-28T07:27:22.239Z,100423.34
2023-04-28T07:29:54.110Z,100412.59
2023-04-28T07:32:28.822Z,100411.69
2023-04-28T07:34:57.163Z,100412.34
2023-04-28T07:37:26.104Z,100410.47
2023-04-28T07:39:54.055Z,100415.31
2023-04-28T07:42:23.932Z,100418.59
2023-04-28T07:44:51.829Z,100427.00
2023-04-28T07:47:20.158Z,100418.81
2023-04-28T07:49:47.957Z,100412.63
2023-04-28T07:52:16.327Z,100411.56
2023-04-28T07:54:44.639Z,100412.09
2023-04-28T07:57:12.835Z,100414.72
2023-04-28T07:59:44.699Z,100405.03
2023-04-28T08:02:13.696Z,100402.59
2023-04-28T08:04:42.486Z,100400.50
2023-04-28T08:07:10.645Z,100400.59
2023-04-28T08:09:41.637Z,100396.56
2023-04-28T08:12:09.966Z,100396.63
2023-04-28T08:14:37.872Z,100395.63
2023-04-28T08:17:07.417Z,100384.91
2023-04-28T08:19:36.083Z,100392.28
2023-04-28T08:22:05.940Z,100390.00
2023-04-28T08:24:35.089Z,100373.47
2023-04-28T08:27:04.857Z,100385.69
2023-04-28T08:29:33.953Z,100386.16
2023-04-28T08:32:07.766Z,100375.44
2023-04-28T08:34:37.203Z,100374.19
2023-04-28T08:37:07.255Z,100371.28
2023-04-28T08:42:19.285Z,100367.13
2023-04-28T08:44:49.179Z,100366.09
2023-04-28T08:47:17.573Z,100369.72
2023-04-28T08:49:48.068Z,100376.06
2023-04-28T08:52:19.541Z,100370.66
2023-04-28T08:54:50.651Z,100362.03
2023-04-28T08:57:21.784Z,100366.41
2023-04-28T08:59:50.152Z,100366.03
2023-04-28T09:02:18.351Z,100357.69
2023-04-28T09:04:48.205Z,100371.16
2023-04-28T09:07:16.723Z,100371.19
2023-04-28T09:09:45.875Z,100377.47
2023-04-28T09:12:14.113Z,100368.22
2023-04-28T09:14:42.336Z,100377.06
2023-04-28T09:17:13.530Z,100371.41
2023-04-28T09:19:43.534Z,100372.03
2023-04-28T09:24:43.889Z,100373.97
2023-04-28T09:27:12.683Z,100370.63
2023-04-28T09:29:52.649Z,100378.59
2023-04-28T09:32:22.560Z,100381.75
2023-04-28T09:34:52.562Z,100385.09
2023-04-28T09:37:24.033Z,100381.72
2023-04-28T09:39:54.053Z,100372.47
2023-04-28T09:42:34.732Z,100362.81
2023-04-28T09:45:03.605Z,100363.66
2023-04-28T09:47:36.307Z,100360.91
2023-04-28T09:50:06.842Z,100350.19
2023-04-28T09:52:40.000Z,100348.13
2023-04-28T09:55:11.156Z,100335.75
2023-04-28T09:57:40.097Z,100342.28
2023-04-28T10:00:10.426Z,100345.66
2023-04-28T10:05:11.374Z,100347.56
2023-04-28T10:07:41.823Z,100352.38
2023-04-28T10:10:10.657Z,100343.56
2023-04-28T10:12:39.082Z,100351.97
2023-04-28T10:15:09.644Z,100343.31
2023-04-28T10:17:38.389Z,100347.28
2023-04-28T10:20:09.353Z,100341.56
2023-04-28T10:22:55.964Z,100333.16
2023-04-28T10:25:28.607Z,100342.19
2023-04-28T10:27:57.346Z,100334.00
2023-04-28T10:30:29.297Z,100334.00
2023-04-28T10:33:27.308Z,100330.25
2023-04-28T10:35:56.038Z,100325.41
2023-04-28T10:38:26.374Z,100329.44
2023-04-28T10:40:55.093Z,100319.31
2023-04-28T10:43:44.096Z,100314.47
2023-04-28T10:46:14.318Z,100302.91
2023-04-28T10:49:00.733Z,100308.59
2023-04-28T10:51:35.656Z,100313.69
2023-04-28T10:54:21.269Z,100310.91
2023-04-28T10:57:20.858Z,100312.16
2023-04-28T10:59:50.408Z,100314.00
2023-04-28T11:02:43.615Z,100309.56
2023-04-28T11:05:21.154Z,100316.97
2023-04-28T11:08:29.867Z,100315.25
2023-04-28T11:11:29.922Z,100307.66
2023-04-28T11:14:34.973Z,100306.88
2023-04-28T11:17:04.140Z,100303.13
2023-04-28T11:19:33.131Z,100309.00
2023-04-28T11:22:02.492Z,100293.81
2023-04-28T11:24:35.298Z,100288.06
2023-04-28T11:27:04.646Z,100280.25
2023-04-28T11:29:33.662Z,100282.72
2023-04-28T11:32:03.509Z,100276.94
2023-04-28T11:34:31.569Z,100271.09
2023-04-28T11:37:00.502Z,100280.56
2023-04-28T11:39:32.586Z,100279.38
2023-04-28T11:42:03.168Z,100275.13
2023-04-28T11:44:33.113Z,100275.00
2023-04-28T11:47:03.279Z,100270.50
2023-04-28T11:49:35.278Z,100268.59
2023-04-28T11:52:06.069Z,100278.94
2023-04-28T11:54:34.728Z,100259.53
2023-04-28T11:57:06.429Z,100261.66
2023-04-28T11:59:43.161Z,100254.31
2023-04-28T12:02:13.262Z,100241.56
2023-04-28T12:04:44.268Z,100241.22
2023-04-28T12:07:14.293Z,100244.13
2023-04-28T12:09:46.495Z,100253.81
2023-04-28T12:12:18.955Z,100245.72
2023-04-28T12:14:58.158Z,100253.13
2023-04-28T12:17:29.166Z,100263.75
2023-04-28T12:19:59.052Z,100255.41
2023-04-28T12:22:32.884Z,100249.84
2023-04-28T12:25:08.582Z,100251.66
2023-04-28T12:27:39.310Z,100242.53
2023-04-28T12:30:37.279Z,100241.94
2023-04-28T12:33:05.456Z,100228.16
2023-04-28T12:35:33.668Z,100232.09
2023-04-28T12:38:01.579Z,100223.72
2023-04-28T12:40:32.339Z,100222.63
2023-04-28T12:43:00.317Z,100227.88
2023-04-28T12:45:30.582Z,100224.66
2023-04-28T12:47:58.618Z,100214.94
2023-04-28T12:50:30.284Z,100229.56
2023-04-28T12:52:58.586Z,100231.28
2023-04-28T12:55:27.365Z,100233.31
2023-04-28T12:57:58.321Z,100228.22
2023-04-28T13:00:26.524Z,100229.13
2023-04-28T13:02:56.047Z,100237.63
2023-04-28T13:05:24.574Z,100234.03
2023-04-28T13:07:52.848Z,100228.94
2023-04-28T13:10:21.472Z,100231.94
2023-04-28T13:12:50.819Z,100233.59
2023-04-28T13:15:19.277Z,100233.59
2023-04-28T13:17:47.308Z,100231.16
2023-04-28T13:20:17.220Z,100216.53
2023-04-28T13:22:53.218Z,100217.44
2023-04-28T13:25:21.783Z,100214.50
2023-04-28T13:27:49.940Z,100212.78
2023-04-28T13:30:18.015Z,100202.16
2023-04-28T13:32:46.289Z,100196.13
2023-04-28T13:35:14.308Z,100198.19
2023-04-28T13:37:46.079Z,100197.38
2023-04-28T13:40:20.702Z,100194.25
2023-04-28T13:42:48.606Z,100195.03
2023-04-28T13:45:19.611Z,100191.78
2023-04-28T13:47:51.126Z,100190.78
2023-04-28T13:50:19.276Z,100183.69
2023-04-28T13:52:50.292Z,100177.56
2023-04-28T13:55:20.562Z,100181.25
2023-04-28T13:57:48.479Z,100181.31
2023-04-28T14:00:20.185Z,100177.00
2023-04-28T14:02:49.762Z,100178.31
2023-04-28T14:05:23.934Z,100175.53
2023-04-28T14:07:54.628Z,100182.13
2023-04-28T14:10:23.864Z,100164.25
2023-04-28T14:12:53.242Z,100175.53
2023-04-28T14:15:22.740Z,100164.91
2023-04-28T14:17:50.762Z,100163.78
2023-04-28T14:20:31.374Z,100162.41
2023-04-28T14:23:00.951Z,100170.19
2023-04-28T14:25:29.292Z,100159.22
2023-04-28T14:27:57.249Z,100154.47
2023-04-28T14:30:25.334Z,100150.78
2023-04-28T14:32:56.141Z,100157.66
2023-04-28T14:35:25.478Z,100156.25
2023-04-28T14:37:54.350Z,100151.06
2023-04-28T14:40:27.833Z,100155.53
2023-04-28T14:42:56.009Z,100153.84
2023-04-28T14:45:24.306Z,100150.84
2023-04-28T14:47:52.568Z,100146.53
2023-04-28T14:50:22.018Z,100145.63
2023-04-28T14:52:51.103Z,100147.97
2023-04-28T14:55:19.444Z,100146.44
2023-04-28T14:57:49.405Z,100143.69
2023-04-28T15:00:18.593Z,100140.88
2023-04-28T15:02:47.078Z,100145.44
2023-04-28T15:05:15.099Z,100139.84
2023-04-28T15:07:42.966Z,100131.19
2023-04-28T15:10:12.189Z,100128.22
2023-04-28T15:12:40.088Z,100124.31
2023-04-28T15:15:11.195Z,100120.97
2023-04-28T15:17:40.126Z,100135.38
2023-04-28T15:20:09.403Z,100134.25
2023-04-28T15:22:40.154Z,100120.47
2023-04-28T15:25:08.702Z,100126.06
2023-04-28T15:27:37.513Z,100121.25
2023-04-28T15:30:08.723Z,100121.03
2023-04-28T15:32:38.314Z,100120.81
2023-04-28T15:35:07.343Z,100124.41
2023-04-28T15:37:47.329Z,100133.06
2023-04-28T15:40:17.681Z,100137.00
2023-04-28T15:42:49.052Z,100137.34
2023-04-28T15:45:18.431Z,100130.72
2023-04-28T15:47:50.657Z,100134.25
2023-04-28T15:50:20.384Z,100117.91
2023-04-28T15:52:50.161Z,100115.91
2023-04-28T15:55:19.470Z,100114.00
2023-04-28T15:57:48.342Z,100116.88
2023-04-28T16:00:17.912Z,100120.00
2023-04-28T16:02:46.660Z,100113.91
2023-04-28T16:05:17.044Z,100118.47
2023-04-28T16:07:45.518Z,100120.50
2023-04-28T16:10:16.629Z,100125.13
2023-04-28T16:12:45.893Z,100128.00
2023-04-28T16:15:14.622Z,100127.47
2023-04-28T16:17:45.199Z,100123.56
2023-04-28T16:20:13.617Z,100120.56
2023-04-28T16:22:43.115Z,100123.09
2023-04-28T16:25:11.823Z,100112.56
2023-04-28T16:27:41.480Z,100115.22
2023-04-28T16:30:10.583Z,100115.53
2023-04-28T16:32:41.244Z,100112.22
2023-04-28T16:35:15.261Z,100114.25
2023-04-28T16:37:45.233Z,100108.59
2023-04-28T16:43:00.804Z,100108.38
2023-04-28T16:45:29.626Z,100109.81
2023-04-28T16:47:57.438Z,100113.03
2023-04-28T16:50:26.044Z,100107.22
2023-04-28T16:52:55.341Z,100114.94
2023-04-28T16:55:23.164Z,100113.91
2023-04-28T16:57:50.973Z,100111.91
2023-04-28T17:00:19.741Z,100103.47
2023-04-28T17:02:47.599Z,100101.09
2023-04-28T17:05:15.579Z,100099.31
2023-04-28T17:07:43.685Z,100103.47
2023-04-28T17:10:13.589Z,100101.91
2023-04-28T17:12:42.706Z,100102.16
2023-04-28T17:15:15.191Z,100095.44
2023-04-28T17:17:43.151Z,100101.19
2023-04-28T17:20:15.943Z,100096.03
2023-04-28T17:22:44.628Z,100088.41
2023-04-28T17:25:14.321Z,100087.69
2023-04-28T17:27:42.183Z,100086.63
2023-04-28T17:30:11.895Z,100089.72
2023-04-28T17:32:40.019Z,100086.00
2023-04-28T17:35:10.404Z,100091.25
2023-04-28T17:37:38.182Z,100095.63
2023-04-28T17:40:07.855Z,100103.63
2023-04-28T17:42:37.080Z,100106.69
2023-04-28T17:45:07.357Z,100117.44
2023-04-28T17:47:36.343Z,100122.88
2023-04-28T17:50:06.550Z,100136.00
2023-04-28T17:52:34.898Z,100127.63
2023-04-28T17:55:03.308Z,100127.00
2023-04-28T17:57:32.028Z,100137.88
2023-04-28T18:00:01.652Z,100128.66
2023-04-28T18:02:40.978Z,100128.31
2023-04-28T18:05:10.710Z,100129.06
2023-04-28T18:07:39.717Z,100136.47
2023-04-28T18:10:08.047Z,100138.31
2023-04-28T18:12:35.828Z,100148.16
2023-04-28T18:15:05.516Z,100156.00
2023-04-28T18:17:34.018Z,100153.25
2023-04-28T18:20:01.910Z,100147.97
2023-04-28T18:22:29.776Z,100151.94
2023-04-28T18:24:58.971Z,100153.72
2023-04-28T18:27:26.917Z,100160.31
2023-04-28T18:29:56.223Z,100160.88
2023-04-28T18:32:25.847Z,100164.38
2023-04-28T18:34:58.366Z,100158.66
2023-04-28T18:37:31.110Z,100162.81
2023-04-28T18:39:59.646Z,100163.72
2023-04-28T18:42:28.304Z,100166.31
2023-04-28T18:44:57.994Z,100167.16
2023-04-28T18:47:27.242Z,100169.91
2023-04-28T18:49:56.842Z,100173.03
2023-04-28T18:52:25.840Z,100174.44
2023-04-28T18:54:54.219Z,100165.19
2023-04-28T18:57:22.061Z,100183.56
2023-04-28T18:59:50.715Z,100177.69
2023-04-28T19:02:19.936Z,100187.69
2023-04-28T19:04:49.097Z,100188.06
2023-04-28T19:07:17.533Z,100186.84
2023-04-28T19:09:47.034Z,100185.19
2023-04-28T19:12:19.177Z,100194.84
2023-04-28T19:14:47.193Z,100197.38
2023-04-28T19:17:18.886Z,100191.66
2023-04-28T19:19:48.959Z,100197.50
2023-04-28T19:22:36.922Z,100196.28
2023-04-28T19:25:07.875Z,100202.06
2023-04-28T19:27:38.023Z,100203.97
2023-04-28T19:30:09.914Z,100212.25
2023-04-28T19:32:38.939Z,100198.88
2023-04-28T19:35:12.070Z,100205.78
2023-04-28T19:38:05.822Z,100203.03
2023-04-28T19:40:33.798Z,100206.22
2023-04-28T19:43:02.815Z,100208.31
2023-04-28T19:45:32.214Z,100212.09
2023-04-28T19:48:00.887Z,100209.34
2023-04-28T19:50:34.804Z,100213.41
2023-04-28T19:53:03.140Z,100210.66
2023-04-28T19:55:31.869Z,100214.63
2023-04-28T19:58:01.062Z,100224.09
2023-04-28T20:00:31.682Z,100217.50
2023-04-28T20:03:01.053Z,100214.31
2023-04-28T20:05:29.887Z,100223.03
2023-04-28T20:08:00.068Z,100224.38
2023-04-28T20:10:28.133Z,100220.34
2023-04-28T20:12:56.121Z,100232.31
2023-04-28T20:15:24.030Z,100222.06
2023-04-28T20:17:52.460Z,100222.69
2023-04-28T20:20:20.460Z,100222.69
2023-04-28T20:22:50.867Z,100220.56
2023-04-28T20:25:20.851Z,100221.06
2023-04-28T20:27:49.937Z,100228.03
2023-04-28T20:30:17.782Z,100221.88
2023-04-28T20:32:45.554Z,100219.81
2023-04-28T20:35:13.384Z,100226.47
2023-04-28T20:37:42.328Z,100218.34
2023-04-28T20:40:11.601Z,100225.31
2023-04-28T20:42:40.721Z,100220.69
2023-04-28T20:45:08.987Z,100226.19
2023-04-28T20:47:36.859Z,100227.81
2023-04-28T20:50:06.459Z,100219.88
2023-04-28T20:52:34.231Z,100214.75
2023-04-28T20:55:02.105Z,100221.50
2023-04-28T20:57:29.941Z,100223.69
2023-04-28T20:59:59.624Z,100228.94
2023-04-28T21:02:27.498Z,100216.31
2023-04-28T21:04:55.297Z,100219.25
2023-04-28T21:07:23.340Z,100227.94
2023-04-28T21:09:52.156Z,100220.38
2023-04-28T21:12:20.129Z,100220.97
2023-04-28T21:14:48.378Z,100223.25
2023-04-28T21:17:19.403Z,100224.38
2023-04-28T21:19:47.123Z,100221.88
2023-04-28T21:22:15.058Z,100222.03
2023-04-28T21:24:42.794Z,100219.13
2023-04-28T21:27:10.847Z,100223.69
2023-04-28T21:29:39.173Z,100229.50
2023-04-28T21:32:07.052Z,100227.16
2023-04-28T21:34:36.673Z,100226.31
2023-04-28T21:37:04.443Z,100234.13
2023-04-28T21:39:32.185Z,100230.13
2023-04-28T21:41:59.943Z,100236.88
2023-04-28T21:44:27.681Z,100229.31
2023-04-28T21:46:55.393Z,100231.88
2023-04-28T21:49:23.139Z,100239.34
2023-04-28T21:51:52.442Z,100241.50
2023-04-28T21:54:21.121Z,100245.31
2023-04-28T21:56:48.850Z,100243.22
2023-04-28T21:59:17.886Z,100239.47
2023-04-28T22:01:46.013Z,100235.19
2023-04-28T22:04:15.116Z,100236.47
2023-04-28T22:06:44.628Z,100235.59
2023-04-28T22:09:13.715Z,100243.63
2023-04-28T22:11:41.517Z,100240.72
2023-04-28T22:14:12.053Z,100240.97
2023-04-28T22:16:43.099Z,100244.34
2023-04-28T22:19:11.450Z,100239.06
2023-04-28T22:21:39.423Z,100248.31
2023-04-28T22:24:08.245Z,100246.16
2023-04-28T22:26:37.549Z,100245.97
2023-04-28T22:29:05.369Z,100245.78
2023-04-28T22:31:33.110Z,100249.78
2023-04-28T22:34:01.931Z,100261.16
2023-04-28T22:36:29.720Z,100253.34
2023-04-28T22:38:57.452Z,100256.97
2023-04-28T22:41:25.870Z,100257.19
2023-04-28T22:43:54.889Z,100262.47
2023-04-28T22:46:23.023Z,100262.47
2023-04-28T22:48:50.995Z,100262.47
2023-04-28T22:51:18.766Z,100259.75
2023-04-28T22:53:46.587Z,100257.63
2023-04-28T22:56:14.380Z,100254.88
2023-04-28T22:58:42.218Z,100263.09
2023-04-28T23:01:11.634Z,100265.81
2023-04-28T23:03:40.708Z,100261.81
2023-04-28T23:06:08.503Z,100263.75
2023-04-28T23:08:36.300Z,100258.72
2023-04-28T23:11:06.800Z,100260.19
2023-04-28T23:13:34.792Z,100260.00
2023-04-28T23:16:02.799Z,100259.78
2023-04-28T23:18:33.778Z,100263.56
2023-04-28T23:21:01.491Z,100266.53
2023-04-28T23:23:29.276Z,100266.53
2023-04-28T23:25:57.025Z,100269.50
2023-04-28T23:28:25.127Z,100279.59
2023-04-28T23:30:52.839Z,100273.69
2023-04-28T23:33:20.711Z,100280.84
2023-04-28T23:35:49.804Z,100278.34
2023-04-28T23:38:17.604Z,100292.44
2023-04-28T23:40:45.552Z,100291.41
2023-04-28T23:43:14.605Z,100281.31
2023-04-28T23:45:42.591Z,100299.81
2023-04-28T23:48:11.058Z,100286.34
2023-04-28T23:50:38.876Z,100281.72
2023-04-28T23:53:07.941Z,100293.88
2023-04-28T23:55:35.726Z,100301.84
2023-04-28T23:58:03.453Z,100298.69
